Time;durP1;ratioP1;P1;durP2;ratioP2;P2;SDS_P1;SDS_P2;PMS_P1;PMS_P2;Temp;Humidity;BMP_temperature;BMP_pressure;BME280_temperature;BME280_humidity;BME280_pressure;Samples;Min_cycle;Max_cycle;Signal;HPM_P1;HPM_P2
2022/12/07 00:01:32;;;;;;;7.32;3.28;;;;;;;;;;4807190;29;20167;-69
2022/12/07 00:04:06;;;;;;;6.47;3.53;;;;;;;;;;4807078;29;20043;-69
2022/12/07 00:06:36;;;;;;;14.98;7.95;;;;;;;;;;4807571;29;20066;-69
2022/12/07 00:09:03;;;;;;;72.63;32.33;;;;;;;;;;4807267;29;20034;-69
2022/12/07 00:11:29;;;;;;;62.05;29.73;;;;;;;;;;4807398;29;20110;-69
2022/12/07 00:13:56;;;;;;;56.28;26.80;;;;;;;;;;4807803;29;20066;-69
2022/12/07 00:16:24;;;;;;;26.13;12.73;;;;;;;;;;4806912;29;20071;-69
2022/12/07 00:18:50;;;;;;;146.50;61.65;;;;;;;;;;4807356;29;20095;-69
2022/12/07 00:21:17;;;;;;;89.22;41.38;;;;;;;;;;4807590;29;20042;-69
2022/12/07 00:23:44;;;;;;;58.50;29.25;;;;;;;;;;4806770;29;20043;-69
2022/12/07 00:26:13;;;;;;;43.80;22.20;;;;;;;;;;4807084;29;20058;-69
2022/12/07 00:28:40;;;;;;;29.90;14.38;;;;;;;;;;4807201;29;20042;-69
2022/12/07 00:31:10;;;;;;;19.13;10.13;;;;;;;;;;4807526;29;20134;-69
2022/12/07 00:33:38;;;;;;;28.38;15.52;;;;;;;;;;4807463;29;20105;-69
2022/12/07 00:36:05;;;;;;;31.20;18.15;;;;;;;;;;4806703;29;20085;-69
2022/12/07 00:38:32;;;;;;;22.05;12.50;;;;;;;;;;4806649;29;20070;-69
2022/12/07 00:41:02;;;;;;;8.93;5.53;;;;;;;;;;4807045;29;20067;-69
2022/12/07 00:43:29;;;;;;;9.32;5.97;;;;;;;;;;4807862;29;20051;-69
2022/12/07 00:45:55;;;;;;;12.32;6.35;;;;;;;;;;4810093;29;20081;-69
2022/12/07 00:48:22;;;;;;;15.43;7.93;;;;;;;;;;4810576;29;20043;-69
2022/12/07 00:50:48;;;;;;;12.95;7.32;;;;;;;;;;4810214;29;20563;-69
2022/12/07 00:53:14;;;;;;;23.60;12.55;;;;;;;;;;4810172;29;20050;-69
2022/12/07 00:55:40;;;;;;;26.13;14.98;;;;;;;;;;4810838;29;20074;-69
2022/12/07 00:58:06;;;;;;;32.80;17.13;;;;;;;;;;4810339;29;20042;-69
2022/12/07 01:00:33;;;;;;;65.57;33.22;;;;;;;;;;4810568;29;20043;-69
2022/12/07 01:02:59;;;;;;;69.28;34.50;;;;;;;;;;4810413;29;20471;-69
2022/12/07 01:05:25;;;;;;;102.20;50.53;;;;;;;;;;4809968;29;20050;-69
2022/12/07 01:07:51;;;;;;;78.82;40.47;;;;;;;;;;4809772;29;20046;-69
2022/12/07 01:10:18;;;;;;;75.53;38.25;;;;;;;;;;4809875;29;20050;-69
2022/12/07 01:12:44;;;;;;;57.95;29.42;;;;;;;;;;4810163;29;20047;-69
2022/12/07 01:15:10;;;;;;;33.83;16.38;;;;;;;;;;4809703;29;20560;-69
2022/12/07 01:17:36;;;;;;;32.83;16.95;;;;;;;;;;4810100;29;20107;-69
2022/12/07 01:20:03;;;;;;;45.55;23.98;;;;;;;;;;4809741;29;20107;-69
2022/12/07 01:22:29;;;;;;;44.08;22.23;;;;;;;;;;4809857;29;20054;-69
2022/12/07 01:24:56;;;;;;;32.13;17.02;;;;;;;;;;4810103;29;20046;-69
2022/12/07 01:27:22;;;;;;;28.77;15.27;;;;;;;;;;4809988;29;20077;-69
2022/12/07 01:29:48;;;;;;;20.55;11.40;;;;;;;;;;4809859;29;20046;-69
2022/12/07 01:32:14;;;;;;;19.85;10.55;;;;;;;;;;4809229;29;20063;-69
2022/12/07 01:34:40;;;;;;;22.95;12.68;;;;;;;;;;4809409;29;20069;-69
2022/12/07 01:37:06;;;;;;;12.82;6.53;;;;;;;;;;4809524;29;20061;-69
2022/12/07 01:39:32;;;;;;;7.75;5.00;;;;;;;;;;4809661;29;20039;-69
2022/12/07 01:41:59;;;;;;;11.05;3.70;;;;;;;;;;4809928;29;20055;-69
2022/12/07 01:44:32;;;;;;;5.60;3.15;;;;;;;;;;4809624;29;20495;-69
2022/12/07 01:47:02;;;;;;;9.07;3.15;;;;;;;;;;4809568;29;20108;-69
2022/12/07 01:49:28;;;;;;;9.40;2.63;;;;;;;;;;4809540;29;20043;-69
2022/12/07 01:51:58;;;;;;;3.90;2.55;;;;;;;;;;4809836;29;20046;-69
2022/12/07 01:54:25;;;;;;;3.65;2.53;;;;;;;;;;4809448;29;20130;-69
2022/12/07 01:56:54;;;;;;;5.75;3.90;;;;;;;;;;4808750;29;20058;-69
2022/12/07 01:59:22;;;;;;;5.35;3.15;;;;;;;;;;4809338;29;20118;-69
2022/12/07 02:01:48;;;;;;;7.05;3.05;;;;;;;;;;4809490;29;20050;-69
2022/12/07 02:04:15;;;;;;;6.90;3.58;;;;;;;;;;4809015;29;20053;-69
2022/12/07 02:06:41;;;;;;;4.07;2.92;;;;;;;;;;4808924;29;20131;-69
2022/12/07 02:09:08;;;;;;;8.18;4.18;;;;;;;;;;4809297;29;20047;-69
2022/12/07 02:11:34;;;;;;;4.97;2.85;;;;;;;;;;4809246;29;20050;-69
2022/12/07 02:14:00;;;;;;;6.45;2.40;;;;;;;;;;4809086;29;20039;-69
2022/12/07 02:16:32;;;;;;;4.78;3.30;;;;;;;;;;4808990;29;20055;-69
2022/12/07 02:19:30;;;;;;;8.88;3.42;;;;;;;;;;4809344;29;20051;-69
2022/12/07 02:21:56;;;;;;;10.50;3.28;;;;;;;;;;4768952;29;20062;-69
2022/12/07 02:24:25;;;;;;;3.03;2.40;;;;;;;;;;4808919;29;20395;-69
2022/12/07 02:27:00;;;;;;;4.38;2.88;;;;;;;;;;4808869;29;20042;-69
2022/12/07 02:29:31;;;;;;;4.75;2.95;;;;;;;;;;4808873;29;20050;-69
2022/12/07 02:32:06;;;;;;;4.03;2.63;;;;;;;;;;4808814;29;20054;-69
2022/12/07 02:34:45;;;;;;;4.15;3.20;;;;;;;;;;4808778;29;20046;-69
2022/12/07 02:37:26;;;;;;;5.72;3.03;;;;;;;;;;4808550;29;20055;-69
2022/12/07 02:39:52;;;;;;;;;;;;;;;;;;4809624;29;20038;-69
2022/12/07 02:42:21;;;;;;;5.32;2.88;;;;;;;;;;4808653;29;20027;-69
2022/12/07 02:44:48;;;;;;;5.25;3.42;;;;;;;;;;4808296;29;20057;-69
2022/12/07 02:47:16;;;;;;;6.93;2.83;;;;;;;;;;4808159;29;20059;-69
2022/12/07 02:49:42;;;;;;;4.75;3.20;;;;;;;;;;4808468;29;20046;-69
2022/12/07 02:52:09;;;;;;;6.68;3.92;;;;;;;;;;4807965;29;20049;-69
2022/12/07 02:54:35;;;;;;;13.70;6.72;;;;;;;;;;4808330;29;20046;-69
2022/12/07 02:57:04;;;;;;;12.52;7.10;;;;;;;;;;4808454;29;20054;-69
2022/12/07 02:59:42;;;;;;;7.20;3.17;;;;;;;;;;4808552;29;20051;-69
2022/12/07 03:02:08;;;;;;;65.40;31.80;;;;;;;;;;4808213;29;20051;-69
2022/12/07 03:04:34;;;;;;;17.50;9.82;;;;;;;;;;4808131;29;20051;-69
2022/12/07 03:07:12;;;;;;;19.73;9.38;;;;;;;;;;4807470;29;20042;-69
2022/12/07 03:09:46;;;;;;;7.03;4.55;;;;;;;;;;4808193;29;20054;-69
2022/12/07 03:12:21;;;;;;;26.83;12.80;;;;;;;;;;4808068;29;20091;-69
2022/12/07 03:14:57;;;;;;;19.58;10.07;;;;;;;;;;4808005;29;20057;-69
2022/12/07 03:17:26;;;;;;;28.25;14.80;;;;;;;;;;4808180;29;20080;-69
2022/12/07 03:19:54;;;;;;;20.10;9.07;;;;;;;;;;4807719;29;20126;-69
2022/12/07 03:22:22;;;;;;;18.83;10.73;;;;;;;;;;4807661;29;20377;-69
2022/12/07 03:25:09;;;;;;;22.83;11.68;;;;;;;;;;4807887;29;20074;-69
2022/12/07 03:27:45;;;;;;;17.92;8.88;;;;;;;;;;4807909;29;20114;-69
2022/12/07 03:30:18;;;;;;;14.15;7.55;;;;;;;;;;4807824;29;20042;-69
2022/12/07 03:32:55;;;;;;;8.63;4.38;;;;;;;;;;4807625;29;20082;-69
2022/12/07 03:35:41;;;;;;;8.40;4.35;;;;;;;;;;4808121;29;20061;-69
2022/12/07 03:38:28;;;;;;;6.97;3.90;;;;;;;;;;4807886;29;20114;-69
2022/12/07 03:41:12;;;;;;;7.30;3.65;;;;;;;;;;4807437;29;20632;-69
2022/12/07 03:43:38;;;;;;;4.20;2.38;;;;;;;;;;4807886;29;20111;-69
2022/12/07 03:46:07;;;;;;;4.43;2.42;;;;;;;;;;4807967;29;20086;-69
2022/12/07 03:48:33;;;;;;;3.65;2.75;;;;;;;;;;4808128;29;20046;-69
2022/12/07 03:51:07;;;;;;;7.97;4.68;;;;;;;;;;4807787;29;20047;-69
2022/12/07 03:53:47;;;;;;;15.13;7.65;;;;;;;;;;4807974;29;20050;-69
2022/12/07 03:56:13;;;;;;;6.35;3.53;;;;;;;;;;4807779;29;20129;-69
2022/12/07 03:58:40;;;;;;;11.48;5.47;;;;;;;;;;4808474;29;20049;-69
2022/12/07 04:01:06;;;;;;;6.28;3.42;;;;;;;;;;4807651;29;20057;-69
2022/12/07 04:03:32;;;;;;;4.43;2.60;;;;;;;;;;4808001;29;20054;-70
2022/12/07 04:05:59;;;;;;;3.92;2.70;;;;;;;;;;4807825;29;20066;-71
2022/12/07 04:08:25;;;;;;;9.75;5.57;;;;;;;;;;4807226;29;20139;-70
2022/12/07 04:10:52;;;;;;;4.13;2.45;;;;;;;;;;4807874;29;20039;-69
2022/12/07 04:13:18;;;;;;;3.28;2.17;;;;;;;;;;4808225;29;20099;-69
2022/12/07 04:15:44;;;;;;;3.58;2.00;;;;;;;;;;4807769;29;20054;-69
2022/12/07 04:18:10;;;;;;;12.63;6.22;;;;;;;;;;4807439;29;20568;-69
2022/12/07 04:20:36;;;;;;;7.78;4.25;;;;;;;;;;4811023;29;20047;-69
2022/12/07 04:23:02;;;;;;;8.52;4.15;;;;;;;;;;4811722;29;20051;-69
2022/12/07 04:25:28;;;;;;;7.22;3.83;;;;;;;;;;4795740;29;20387;-69
2022/12/07 04:27:54;;;;;;;5.95;3.30;;;;;;;;;;4811193;29;20047;-69
2022/12/07 04:30:21;;;;;;;4.53;2.80;;;;;;;;;;4811100;29;20043;-69
2022/12/07 04:32:47;;;;;;;7.28;4.40;;;;;;;;;;4810943;29;20499;-69
2022/12/07 04:35:13;;;;;;;4.10;2.65;;;;;;;;;;4811061;29;20050;-69
2022/12/07 04:37:39;;;;;;;4.43;2.92;;;;;;;;;;4810655;29;20430;-69
2022/12/07 04:40:07;;;;;;;9.35;4.07;;;;;;;;;;4810757;29;20051;-69
2022/12/07 04:42:33;;;;;;;3.92;2.65;;;;;;;;;;4810398;29;20122;-69
2022/12/07 04:44:59;;;;;;;4.20;2.75;;;;;;;;;;4810938;29;20043;-69
2022/12/07 04:47:25;;;;;;;5.75;3.63;;;;;;;;;;4810794;29;20090;-69
2022/12/07 04:49:52;;;;;;;4.97;3.25;;;;;;;;;;4811032;29;20107;-69
2022/12/07 04:52:18;;;;;;;4.40;2.88;;;;;;;;;;4810216;29;20077;-69
2022/12/07 04:54:44;;;;;;;5.32;2.60;;;;;;;;;;4810928;29;20142;-69
2022/12/07 04:57:10;;;;;;;3.88;2.50;;;;;;;;;;4810709;29;20054;-69
2022/12/07 04:59:36;;;;;;;5.45;2.97;;;;;;;;;;4810946;29;20043;-69
2022/12/07 05:02:02;;;;;;;3.88;2.85;;;;;;;;;;4809929;29;20051;-69
2022/12/07 05:04:28;;;;;;;4.45;2.40;;;;;;;;;;4810528;29;20046;-69
2022/12/07 05:06:54;;;;;;;3.50;2.40;;;;;;;;;;4810341;29;20502;-69
2022/12/07 05:09:21;;;;;;;6.20;3.65;;;;;;;;;;4810486;29;20042;-69
2022/12/07 05:11:47;;;;;;;4.28;2.45;;;;;;;;;;4810492;29;20529;-69
2022/12/07 05:14:15;;;;;;;4.72;3.20;;;;;;;;;;4810401;29;20049;-69
2022/12/07 05:16:42;;;;;;;4.50;2.72;;;;;;;;;;4810406;29;20047;-70
2022/12/07 05:19:08;;;;;;;3.92;2.72;;;;;;;;;;4810303;29;20043;-70
2022/12/07 05:21:35;;;;;;;6.13;3.20;;;;;;;;;;4810506;29;20551;-71
2022/12/07 05:24:01;;;;;;;4.90;2.70;;;;;;;;;;4810252;29;20043;-69
2022/12/07 05:26:28;;;;;;;5.32;2.83;;;;;;;;;;4810113;29;20058;-69
2022/12/07 05:28:55;;;;;;;4.13;2.65;;;;;;;;;;4809896;29;20042;-69
2022/12/07 05:31:22;;;;;;;5.38;2.97;;;;;;;;;;4809486;29;20050;-71
2022/12/07 05:33:48;;;;;;;4.20;2.45;;;;;;;;;;4810570;29;20043;-73
2022/12/07 05:36:14;;;;;;;3.70;2.60;;;;;;;;;;4809606;29;20395;-70
2022/12/07 05:38:41;;;;;;;3.97;2.38;;;;;;;;;;4809358;29;20047;-70
2022/12/07 05:42:11;;;;;;;4.07;2.47;;;;;;;;;;4809819;29;20054;-70
2022/12/07 05:43:53;;;;;;;4.22;2.30;;;;;;;;;;4809516;29;20046;-70
2022/12/07 05:46:19;;;;;;;4.03;2.45;;;;;;;;;;4809575;29;20055;-70
2022/12/07 05:48:46;;;;;;;3.47;2.17;;;;;;;;;;4809747;29;20495;-70
2022/12/07 05:51:12;;;;;;;2.58;2.00;;;;;;;;;;4809438;29;20047;-70
2022/12/07 05:53:38;;;;;;;4.40;2.45;;;;;;;;;;4809332;29;20046;-70
2022/12/07 05:56:04;;;;;;;3.25;2.42;;;;;;;;;;4808808;29;20058;-70
2022/12/07 06:01:15;;;;;;;6.10;2.40;;;;;;;;;;4808862;29;20049;-69
2022/12/07 06:03:41;;;;;;;3.95;2.88;;;;;;;;;;4808844;29;20511;-70
2022/12/07 06:06:07;;;;;;;4.60;2.78;;;;;;;;;;4809119;29;20054;-70
2022/12/07 06:08:33;;;;;;;3.47;2.33;;;;;;;;;;4808921;29;20156;-70
2022/12/07 06:13:44;;;;;;;4.45;2.28;;;;;;;;;;4807813;29;20700;-70
2022/12/07 06:16:10;;;;;;;2.75;2.13;;;;;;;;;;4808227;29;20054;-70
2022/12/07 06:18:36;;;;;;;5.43;2.63;;;;;;;;;;4808549;29;20058;-70
2022/12/07 06:21:03;;;;;;;4.50;2.20;;;;;;;;;;4808924;29;20526;-70
2022/12/07 06:23:29;;;;;;;2.35;1.98;;;;;;;;;;4808087;29;20128;-70
2022/12/07 06:25:55;;;;;;;4.95;2.10;;;;;;;;;;4808421;29;20050;-70
2022/12/07 06:28:21;;;;;;;3.65;2.20;;;;;;;;;;4808746;29;20058;-70
2022/12/07 06:30:47;;;;;;;3.30;1.95;;;;;;;;;;4808511;29;20051;-70
2022/12/07 06:33:13;;;;;;;4.32;2.15;;;;;;;;;;4808817;29;20050;-70
2022/12/07 06:35:39;;;;;;;2.72;1.83;;;;;;;;;;4808355;29;20074;-70
2022/12/07 06:38:05;;;;;;;5.72;2.25;;;;;;;;;;4808714;29;20133;-70
2022/12/07 06:40:31;;;;;;;3.83;2.45;;;;;;;;;;4808385;29;20129;-70
2022/12/07 06:42:58;;;;;;;3.47;2.42;;;;;;;;;;4807961;29;20062;-70
2022/12/07 06:45:24;;;;;;;3.05;1.90;;;;;;;;;;4808290;29;20048;-70
2022/12/07 06:47:50;;;;;;;3.20;2.10;;;;;;;;;;4808875;29;20081;-70
2022/12/07 06:50:16;;;;;;;4.47;2.35;;;;;;;;;;4808731;29;20094;-71
2022/12/07 06:52:43;;;;;;;2.17;1.73;;;;;;;;;;4808697;29;20112;-70
2022/12/07 06:55:09;;;;;;;2.05;1.85;;;;;;;;;;4808379;29;20519;-70
2022/12/07 06:57:35;;;;;;;2.00;1.80;;;;;;;;;;4808471;29;20055;-70
2022/12/07 07:00:01;;;;;;;3.17;2.08;;;;;;;;;;4808372;29;20047;-70
2022/12/07 07:02:27;;;;;;;4.47;2.28;;;;;;;;;;4808387;29;20499;-70
2022/12/07 07:04:53;;;;;;;4.18;1.80;;;;;;;;;;4808761;29;20491;-70
2022/12/07 07:07:20;;;;;;;3.17;1.75;;;;;;;;;;4808263;29;20562;-70
2022/12/07 07:09:46;;;;;;;2.47;1.85;;;;;;;;;;4808440;29;20046;-70
2022/12/07 07:12:12;;;;;;;2.88;1.83;;;;;;;;;;4807954;29;20047;-70
2022/12/07 07:14:38;;;;;;;2.00;1.75;;;;;;;;;;4808222;29;20043;-70
2022/12/07 07:17:04;;;;;;;3.08;2.20;;;;;;;;;;4815442;29;20046;-69
2022/12/07 07:19:30;;;;;;;5.88;2.92;;;;;;;;;;4810118;29;20145;-69
2022/12/07 07:21:56;;;;;;;5.45;3.50;;;;;;;;;;4786972;29;20091;-69
2022/12/07 07:24:22;;;;;;;5.53;4.15;;;;;;;;;;4807234;29;20070;-69
2022/12/07 07:26:49;;;;;;;6.63;3.65;;;;;;;;;;4805997;29;20047;-69
2022/12/07 07:29:15;;;;;;;4.63;3.35;;;;;;;;;;4807409;29;20047;-69
2022/12/07 07:31:41;;;;;;;5.20;3.20;;;;;;;;;;4803276;29;20047;-69
2022/12/07 07:34:07;;;;;;;5.35;3.40;;;;;;;;;;4795946;29;20534;-69
2022/12/07 07:36:33;;;;;;;3.38;2.60;;;;;;;;;;4794886;29;20062;-69
2022/12/07 07:38:59;;;;;;;4.53;3.15;;;;;;;;;;4799474;29;20044;-69
2022/12/07 07:41:25;;;;;;;5.50;3.75;;;;;;;;;;4798538;29;20440;-71
2022/12/07 07:43:52;;;;;;;4.28;3.10;;;;;;;;;;4794315;29;20043;-71
2022/12/07 07:46:18;;;;;;;6.10;3.90;;;;;;;;;;4805916;29;20595;-72
2022/12/07 07:48:44;;;;;;;7.50;4.72;;;;;;;;;;4796555;29;20079;-72
2022/12/07 07:51:14;;;;;;;6.25;4.30;;;;;;;;;;4803236;29;20081;-71
2022/12/07 07:53:40;;;;;;;5.65;3.95;;;;;;;;;;4793784;29;20046;-72
2022/12/07 07:56:06;;;;;;;5.47;3.80;;;;;;;;;;4799423;29;20051;-72
2022/12/07 07:58:32;;;;;;;6.03;3.80;;;;;;;;;;4795726;29;20047;-73
2022/12/07 08:01:03;;;;;;;6.43;4.00;;;;;;;;;;4801233;29;20047;-73
2022/12/07 08:03:30;;;;;;;5.15;3.45;;;;;;;;;;4794092;29;20071;-74
2022/12/07 08:05:56;;;;;;;6.25;3.75;;;;;;;;;;4801890;29;20054;-73
2022/12/07 08:08:22;;;;;;;4.97;3.38;;;;;;;;;;4806567;29;20042;-73
2022/12/07 08:10:48;;;;;;;6.88;3.63;;;;;;;;;;4797958;29;20101;-73
2022/12/07 08:13:16;;;;;;;7.35;3.97;;;;;;;;;;4788952;29;20047;-74
2022/12/07 08:15:43;;;;;;;8.63;3.45;;;;;;;;;;4788444;30;20054;-72
2022/12/07 08:18:10;;;;;;;5.47;3.20;;;;;;;;;;4788857;29;20453;-73
2022/12/07 08:20:37;;;;;;;6.32;3.13;;;;;;;;;;4788416;30;20070;-73
2022/12/07 08:23:03;;;;;;;5.25;3.05;;;;;;;;;;4796682;29;20039;-73
2022/12/07 08:25:29;;;;;;;5.15;3.15;;;;;;;;;;4806455;29;20367;-73
2022/12/07 08:27:56;;;;;;;4.68;2.80;;;;;;;;;;4805786;29;20042;-73
2022/12/07 08:30:22;;;;;;;9.77;5.38;;;;;;;;;;4806957;29;20050;-73
2022/12/07 08:32:48;;;;;;;10.05;4.93;;;;;;;;;;4806688;29;20053;-72
2022/12/07 08:35:15;;;;;;;4.57;3.15;;;;;;;;;;4806172;29;20054;-74
2022/12/07 08:37:41;;;;;;;2.55;2.00;;;;;;;;;;4806371;29;20196;-73
2022/12/07 08:40:08;;;;;;;3.70;2.53;;;;;;;;;;4806000;29;20055;-74
2022/12/07 08:42:39;;;;;;;4.63;2.10;;;;;;;;;;4806079;29;20046;-73
2022/12/07 08:45:05;;;;;;;;;;;;;;;;;;4807169;29;20058;-75
2022/12/07 08:47:32;;;;;;;5.43;2.40;;;;;;;;;;4759777;29;1414739;-75
2022/12/07 08:50:03;;;;;;;4.22;2.10;;;;;;;;;;4806988;29;20051;-75
2022/12/07 08:52:29;;;;;;;;;;;;;;;;;;4806954;29;20047;-76
2022/12/07 08:54:56;;;;;;;3.65;2.38;;;;;;;;;;4802311;29;19917;-72
2022/12/07 08:57:22;;;;;;;5.00;2.42;;;;;;;;;;4802705;29;20078;-72
2022/12/07 08:59:48;;;;;;;30.65;13.40;;;;;;;;;;4792313;29;20044;-72
2022/12/07 09:02:14;;;;;;;12.43;4.63;;;;;;;;;;4790988;29;20058;-70
2022/12/07 09:04:40;;;;;;;4.00;2.63;;;;;;;;;;4807627;29;20043;-72
2022/12/07 09:07:06;;;;;;;4.18;2.67;;;;;;;;;;4802140;29;20227;-71
2022/12/07 09:09:33;;;;;;;3.22;2.15;;;;;;;;;;4796179;29;20110;-70
2022/12/07 09:11:59;;;;;;;10.63;4.97;;;;;;;;;;4793044;29;20380;-70
2022/12/07 09:14:25;;;;;;;7.30;3.45;;;;;;;;;;4792367;29;20407;-69
2022/12/07 09:16:51;;;;;;;11.80;6.40;;;;;;;;;;4808186;29;20452;-69
2022/12/07 09:19:17;;;;;;;3.30;2.35;;;;;;;;;;4809960;29;20130;-69
2022/12/07 09:21:44;;;;;;;8.88;3.53;;;;;;;;;;4809785;29;20135;-69
2022/12/07 09:24:10;;;;;;;3.58;2.00;;;;;;;;;;4800088;29;20043;-70
2022/12/07 09:26:36;;;;;;;3.30;1.98;;;;;;;;;;4809692;29;20123;-70
2022/12/07 09:29:03;;;;;;;2.85;1.85;;;;;;;;;;4809927;29;20069;-70
2022/12/07 09:31:29;;;;;;;1.92;1.35;;;;;;;;;;4809572;29;20053;-70
2022/12/07 09:33:59;;;;;;;3.47;1.38;;;;;;;;;;4809754;29;20066;-70
2022/12/07 09:36:26;;;;;;;5.20;2.53;;;;;;;;;;4809931;29;20057;-70
2022/12/07 09:38:53;;;;;;;1.33;0.93;;;;;;;;;;4809589;29;20043;-70
2022/12/07 09:41:19;;;;;;;5.13;2.60;;;;;;;;;;4809242;29;20127;-70
2022/12/07 09:43:46;;;;;;;2.92;2.03;;;;;;;;;;4801492;29;20050;-70
2022/12/07 09:46:14;;;;;;;3.38;2.00;;;;;;;;;;4796912;29;20058;-71
2022/12/07 09:48:42;;;;;;;1.80;1.30;;;;;;;;;;4809318;29;20177;-70
2022/12/07 09:51:22;;;;;;;2.45;1.75;;;;;;;;;;4809843;29;20047;-70
2022/12/07 09:53:49;;;;;;;2.65;1.58;;;;;;;;;;4807107;29;20073;-70
2022/12/07 09:56:16;;;;;;;3.92;1.90;;;;;;;;;;4806502;29;20089;-70
2022/12/07 09:58:42;;;;;;;2.70;1.70;;;;;;;;;;4809130;29;20050;-70
2022/12/07 10:01:09;;;;;;;4.38;1.77;;;;;;;;;;4798666;29;20077;-71
2022/12/07 10:03:39;;;;;;;2.75;1.25;;;;;;;;;;4809668;29;20047;-71
2022/12/07 10:06:06;;;;;;;3.63;1.35;;;;;;;;;;4809688;29;20150;-71
2022/12/07 10:08:32;;;;;;;3.15;1.27;;;;;;;;;;4809441;29;20047;-71
2022/12/07 10:10:59;;;;;;;4.35;2.17;;;;;;;;;;4810083;29;20051;-70
2022/12/07 10:13:37;;;;;;;1.85;1.10;;;;;;;;;;4809748;29;20149;-71
2022/12/07 10:16:03;;;;;;;1.65;1.20;;;;;;;;;;4809305;29;20100;-70
2022/12/07 10:18:31;;;;;;;1.98;1.55;;;;;;;;;;4797596;29;20112;-71
2022/12/07 10:21:09;;;;;;;1.42;1.10;;;;;;;;;;4791103;30;20495;-71
2022/12/07 10:23:36;;;;;;;3.17;1.80;;;;;;;;;;4791454;30;20051;-71
2022/12/07 10:26:21;;;;;;;2.13;1.20;;;;;;;;;;4790945;30;20051;-71
2022/12/07 10:28:48;;;;;;;2.47;0.98;;;;;;;;;;4791154;30;20047;-71
2022/12/07 10:31:19;;;;;;;3.75;1.10;;;;;;;;;;4790775;30;20040;-71
2022/12/07 10:33:45;;;;;;;;;;;;;;;;;;4791238;30;20060;-71
2022/12/07 10:36:17;;;;;;;1.85;1.27;;;;;;;;;;4790819;30;19918;-71
2022/12/07 10:38:59;;;;;;;3.97;1.40;;;;;;;;;;4791031;30;20464;-71
2022/12/07 10:41:25;;;;;;;2.00;1.33;;;;;;;;;;4790662;30;20507;-71
2022/12/07 10:43:53;;;;;;;1.52;1.08;;;;;;;;;;4790607;30;20078;-71
2022/12/07 10:46:38;;;;;;;2.72;1.33;;;;;;;;;;4790617;30;20077;-71
2022/12/07 10:49:04;;;;;;;2.60;1.60;;;;;;;;;;4774134;30;20122;-70
2022/12/07 10:51:30;;;;;;;1.90;1.58;;;;;;;;;;4789737;30;20075;-70
2022/12/07 10:54:04;;;;;;;1.70;1.30;;;;;;;;;;4794201;29;20055;-70
2022/12/07 10:56:49;;;;;;;3.05;1.48;;;;;;;;;;4808270;29;20065;-70
2022/12/07 10:59:15;;;;;;;7.53;4.93;;;;;;;;;;4808360;29;20047;-70
2022/12/07 11:02:00;;;;;;;1.60;1.15;;;;;;;;;;4808229;29;20050;-70
2022/12/07 11:04:26;;;;;;;1.60;0.80;;;;;;;;;;4808263;29;20043;-71
2022/12/07 11:07:01;;;;;;;1.23;0.90;;;;;;;;;;4808049;29;20050;-71
2022/12/07 11:09:37;;;;;;;1.80;1.42;;;;;;;;;;4808237;29;20058;-71
2022/12/07 11:12:11;;;;;;;1.80;1.42;;;;;;;;;;4808318;29;20050;-71
2022/12/07 11:14:54;;;;;;;1.73;1.10;;;;;;;;;;4808647;29;20158;-71
2022/12/07 11:17:26;;;;;;;2.75;0.90;;;;;;;;;;4808151;29;20061;-70
2022/12/07 11:20:05;;;;;;;1.40;1.20;;;;;;;;;;4808621;29;20055;-70
2022/12/07 11:22:45;;;;;;;1.40;1.25;;;;;;;;;;4807513;29;20046;-70
2022/12/07 11:25:11;;;;;;;5.15;1.25;;;;;;;;;;4807912;29;20050;-70
2022/12/07 11:27:39;;;;;;;4.13;1.65;;;;;;;;;;4807346;29;20058;-70
2022/12/07 11:30:11;;;;;;;1.80;1.40;;;;;;;;;;4825261;29;20047;-70
2022/12/07 11:32:56;;;;;;;1.60;1.38;;;;;;;;;;4804726;29;20542;-70
2022/12/07 11:35:25;;;;;;;1.30;1.20;;;;;;;;;;4799320;29;20053;-70
2022/12/07 11:37:58;;;;;;;1.98;1.52;;;;;;;;;;4793418;29;20051;-70
2022/12/07 11:40:35;;;;;;;3.45;1.70;;;;;;;;;;4790072;29;20407;-70
2022/12/07 11:43:07;;;;;;;2.72;2.00;;;;;;;;;;4803274;29;20061;-70
2022/12/07 11:45:34;;;;;;;5.45;1.85;;;;;;;;;;4791558;29;20047;-70
2022/12/07 11:48:02;;;;;;;2.65;2.15;;;;;;;;;;4809807;29;20097;-68
2022/12/07 11:50:41;;;;;;;4.03;2.30;;;;;;;;;;4798510;29;20521;-70
2022/12/07 11:53:14;;;;;;;3.35;2.30;;;;;;;;;;4806080;29;20450;-69
2022/12/07 11:55:53;;;;;;;3.53;1.70;;;;;;;;;;4793366;29;20050;-70
2022/12/07 11:58:30;;;;;;;5.05;1.73;;;;;;;;;;4789690;29;20042;-69
2022/12/07 12:01:08;;;;;;;5.55;4.35;;;;;;;;;;4792828;29;20055;-69
2022/12/07 12:03:37;;;;;;;4.13;2.55;;;;;;;;;;4807721;29;20053;-69
2022/12/07 12:06:03;;;;;;;3.22;2.10;;;;;;;;;;4807575;29;20092;-71
2022/12/07 12:08:50;;;;;;;3.28;2.25;;;;;;;;;;4803104;29;20049;-69
2022/12/07 12:11:34;;;;;;;3.58;2.13;;;;;;;;;;4807281;29;20055;-69
2022/12/07 12:14:06;;;;;;;4.40;2.10;;;;;;;;;;4793898;29;20049;-70
2022/12/07 12:16:51;;;;;;;2.78;1.80;;;;;;;;;;4789462;30;20136;-68
2022/12/07 12:19:30;;;;;;;3.35;2.47;;;;;;;;;;4799064;29;20098;-75
2022/12/07 12:22:05;;;;;;;3.78;2.53;;;;;;;;;;4804143;29;20047;-74
2022/12/07 12:24:36;;;;;;;3.72;1.98;;;;;;;;;;4808081;29;20169;-71
2022/12/07 12:27:02;;;;;;;;;;;;;;;;;;4807462;29;20410;-70
2022/12/07 12:29:31;;;;;;;3.53;2.30;;;;;;;;;;4807942;29;19938;-70
2022/12/07 12:32:09;;;;;;;2.63;1.70;;;;;;;;;;4805519;29;20047;-70
2022/12/07 12:34:40;;;;;;;1.88;1.67;;;;;;;;;;4807103;29;20451;-70
2022/12/07 12:37:44;;;;;;;2.58;2.05;;;;;;;;;;4807491;29;20055;-70
2022/12/07 12:40:16;;;;;;;3.22;1.80;;;;;;;;;;4752781;30;20102;-70
2022/12/07 12:43:01;;;;;;;5.00;2.00;;;;;;;;;;4754883;30;20044;-70
2022/12/07 12:45:31;;;;;;;3.90;2.42;;;;;;;;;;4785766;29;20545;-70
2022/12/07 12:47:57;;;;;;;3.78;2.60;;;;;;;;;;4809625;29;20150;-71
2022/12/07 12:50:37;;;;;;;4.95;2.30;;;;;;;;;;4808960;29;20039;-70
2022/12/07 12:53:22;;;;;;;6.45;2.83;;;;;;;;;;4810063;29;20058;-70
2022/12/07 12:56:07;;;;;;;3.75;2.80;;;;;;;;;;4809745;29;20103;-70
2022/12/07 12:58:35;;;;;;;4.00;2.80;;;;;;;;;;4810173;29;20047;-71
2022/12/07 13:01:19;;;;;;;4.97;2.80;;;;;;;;;;4809857;29;20120;-69
2022/12/07 13:03:55;;;;;;;5.47;2.83;;;;;;;;;;4810255;29;20055;-69
2022/12/07 13:06:24;;;;;;;6.03;3.08;;;;;;;;;;4810304;29;20055;-71
2022/12/07 13:08:51;;;;;;;4.25;3.00;;;;;;;;;;4809873;29;20588;-70
2022/12/07 13:11:25;;;;;;;6.85;2.90;;;;;;;;;;4810003;29;20046;-70
2022/12/07 13:13:51;;;;;;;3.47;2.60;;;;;;;;;;4810786;29;20085;-70
2022/12/07 13:16:17;;;;;;;5.25;3.60;;;;;;;;;;4809947;29;20388;-70
2022/12/07 13:18:44;;;;;;;3.65;2.58;;;;;;;;;;4810110;29;20130;-70
2022/12/07 13:21:10;;;;;;;4.00;2.53;;;;;;;;;;4793783;29;20398;-70
2022/12/07 13:23:37;;;;;;;5.78;2.30;;;;;;;;;;4810228;29;20051;-70
2022/12/07 13:26:22;;;;;;;3.50;2.60;;;;;;;;;;4809816;29;20050;-70
2022/12/07 13:28:49;;;;;;;4.38;2.55;;;;;;;;;;4809932;29;20038;-70
2022/12/07 13:31:31;;;;;;;3.95;1.95;;;;;;;;;;4809905;29;20050;-70
2022/12/07 13:33:57;;;;;;;4.28;2.00;;;;;;;;;;4810098;29;20043;-70
2022/12/07 13:36:35;;;;;;;3.13;1.98;;;;;;;;;;4809596;29;20130;-70
2022/12/07 13:39:11;;;;;;;2.80;1.80;;;;;;;;;;4809463;29;20050;-70
2022/12/07 13:41:42;;;;;;;3.97;2.00;;;;;;;;;;4809747;29;20058;-70
2022/12/07 13:44:18;;;;;;;5.45;2.10;;;;;;;;;;4810034;29;20081;-70
2022/12/07 13:46:53;;;;;;;2.08;1.45;;;;;;;;;;4809429;29;20061;-70
2022/12/07 13:49:26;;;;;;;3.83;1.77;;;;;;;;;;4809869;29;20050;-70
2022/12/07 13:51:52;;;;;;;4.35;2.90;;;;;;;;;;4809407;29;20054;-70
2022/12/07 13:54:19;;;;;;;4.97;2.92;;;;;;;;;;4810159;29;20061;-70
2022/12/07 13:56:48;;;;;;;6.60;3.25;;;;;;;;;;4809565;29;20055;-70
2022/12/07 13:59:17;;;;;;;3.70;1.60;;;;;;;;;;4809459;29;20047;-70
2022/12/07 14:01:47;;;;;;;5.03;2.65;;;;;;;;;;4809757;29;20154;-70
2022/12/07 14:04:28;;;;;;;5.50;3.22;;;;;;;;;;4810229;29;20043;-70
2022/12/07 14:06:54;;;;;;;6.57;3.47;;;;;;;;;;4809419;29;20125;-70
2022/12/07 14:09:22;;;;;;;6.68;3.20;;;;;;;;;;4810029;29;20063;-70
2022/12/07 14:11:49;;;;;;;4.45;2.53;;;;;;;;;;4810287;29;20051;-70
2022/12/07 14:14:20;;;;;;;3.70;2.67;;;;;;;;;;4809736;29;20468;-70
2022/12/07 14:16:46;;;;;;;;;;;;;;;;;;4809751;29;20061;-70
2022/12/07 14:19:31;;;;;;;6.85;2.95;;;;;;;;;;4809927;29;19917;-70
2022/12/07 14:22:07;;;;;;;4.57;1.92;;;;;;;;;;4809445;29;20112;-70
2022/12/07 14:24:42;;;;;;;2.67;1.63;;;;;;;;;;4809186;29;20054;-70
2022/12/07 14:27:17;;;;;;;4.72;2.30;;;;;;;;;;4809471;29;20059;-70
2022/12/07 14:29:44;;;;;;;20.80;6.28;;;;;;;;;;4809793;29;20059;-70
2022/12/07 14:32:29;;;;;;;9.00;4.00;;;;;;;;;;4809364;29;20151;-70
2022/12/07 14:35:03;;;;;;;16.92;6.05;;;;;;;;;;4809350;29;20051;-70
2022/12/07 14:37:29;;;;;;;22.00;8.73;;;;;;;;;;4808866;29;20054;-70
2022/12/07 14:39:56;;;;;;;25.75;9.70;;;;;;;;;;4809028;29;20043;-70
2022/12/07 14:42:24;;;;;;;8.80;4.60;;;;;;;;;;4808779;29;20078;-70
2022/12/07 14:44:50;;;;;;;4.93;2.47;;;;;;;;;;4808605;29;20419;-70
2022/12/07 14:47:16;;;;;;;12.90;6.30;;;;;;;;;;4808814;29;20067;-70
2022/12/07 14:49:42;;;;;;;16.67;7.63;;;;;;;;;;4809075;29;20483;-70
2022/12/07 14:52:14;;;;;;;13.38;7.05;;;;;;;;;;4808874;29;20051;-70
2022/12/07 14:54:42;;;;;;;19.73;9.13;;;;;;;;;;4808735;29;20069;-70
2022/12/07 14:57:09;;;;;;;14.55;7.18;;;;;;;;;;4808624;29;20109;-70
2022/12/07 14:59:36;;;;;;;60.08;27.92;;;;;;;;;;4808540;29;20484;-70